sensor_id;sensor_type;location;lat;lon;timestamp;pressure;altitude;pressure_sealevel;temperature;humidity
29247;BME280;16272;48.188;9.964;2023-07-22T00:01:30;95815.28;;;15.21;77.88
29247;BME280;16272;48.188;9.964;2023-07-22T00:03:56;95806.38;;;15.29;77.21
29247;BME280;16272;48.188;9.964;2023-07-22T00:06:21;95814.72;;;15.11;78.06
29247;BME280;16272;48.188;9.964;2023-07-22T00:08:47;95812.59;;;15.21;77.57
29247;BME280;16272;48.188;9.964;2023-07-22T00:11:12;95812.63;;;14.98;80.17
29247;BME280;16272;48.188;9.964;2023-07-22T00:13:37;95805.63;;;14.97;78.33
29247;BME280;16272;48.188;9.964;2023-07-22T00:16:02;95806.28;;;14.76;78.00
29247;BME280;16272;48.188;9.964;2023-07-22T00:18:29;95804.72;;;14.50;80.45
29247;BME280;16272;48.188;9.964;2023-07-22T00:20:54;95800.38;;;14.58;80.90
29247;BME280;16272;48.188;9.964;2023-07-22T00:23:20;95801.00;;;14.68;78.85
29247;BME280;16272;48.188;9.964;2023-07-22T00:25:49;95806.22;;;14.84;77.17
29247;BME280;16272;48.188;9.964;2023-07-22T00:28:15;95795.47;;;13.90;81.90
29247;BME280;16272;48.188;9.964;2023-07-22T00:30:40;95800.00;;;13.90;81.68
29247;BME280;16272;48.188;9.964;2023-07-22T00:33:06;95807.66;;;13.93;80.44
29247;BME280;16272;48.188;9.964;2023-07-22T00:35:32;95802.69;;;13.82;81.02
29247;BME280;16272;48.188;9.964;2023-07-22T00:37:58;95806.03;;;13.75;80.46
29247;BME280;16272;48.188;9.964;2023-07-22T00:40:23;95811.44;;;13.42;81.55
29247;BME280;16272;48.188;9.964;2023-07-22T00:42:49;95798.78;;;13.61;80.43
29247;BME280;16272;48.188;9.964;2023-07-22T00:45:14;95797.34;;;13.82;78.25
29247;BME280;16272;48.188;9.964;2023-07-22T00:47:39;95792.28;;;14.03;77.35
29247;BME280;16272;48.188;9.964;2023-07-22T00:50:07;95796.25;;;14.15;76.19
29247;BME280;16272;48.188;9.964;2023-07-22T00:52:34;95788.66;;;14.27;76.36
29247;BME280;16272;48.188;9.964;2023-07-22T00:54:59;95793.25;;;14.10;76.52
29247;BME280;16272;48.188;9.964;2023-07-22T00:57:25;95792.63;;;14.00;77.23
29247;BME280;16272;48.188;9.964;2023-07-22T00:59:50;95792.50;;;14.25;76.51
29247;BME280;16272;48.188;9.964;2023-07-22T01:02:16;95783.78;;;14.31;75.88
29247;BME280;16272;48.188;9.964;2023-07-22T01:04:42;95783.53;;;14.18;75.65
29247;BME280;16272;48.188;9.964;2023-07-22T01:07:08;95783.66;;;13.85;75.47
29247;BME280;16272;48.188;9.964;2023-07-22T01:09:39;95784.44;;;13.29;77.44
29247;BME280;16272;48.188;9.964;2023-07-22T01:12:06;95792.47;;;13.13;79.04
29247;BME280;16272;48.188;9.964;2023-07-22T01:14:36;95791.63;;;13.20;79.56
29247;BME280;16272;48.188;9.964;2023-07-22T01:17:03;95785.47;;;13.36;77.70
29247;BME280;16272;48.188;9.964;2023-07-22T01:19:30;95786.44;;;13.52;76.95
29247;BME280;16272;48.188;9.964;2023-07-22T01:21:59;95787.78;;;13.15;77.76
29247;BME280;16272;48.188;9.964;2023-07-22T01:24:25;95795.94;;;12.97;78.53
29247;BME280;16272;48.188;9.964;2023-07-22T01:26:51;95793.44;;;12.79;79.70
29247;BME280;16272;48.188;9.964;2023-07-22T01:29:16;95790.44;;;12.74;78.93
29247;BME280;16272;48.188;9.964;2023-07-22T01:31:41;95791.75;;;12.45;80.81
29247;BME280;16272;48.188;9.964;2023-07-22T01:34:06;95793.56;;;12.53;81.93
29247;BME280;16272;48.188;9.964;2023-07-22T01:36:32;95795.06;;;12.47;83.29
29247;BME280;16272;48.188;9.964;2023-07-22T01:38:57;95792.94;;;12.75;83.24
29247;BME280;16272;48.188;9.964;2023-07-22T01:41:22;95794.47;;;13.11;81.24
29247;BME280;16272;48.188;9.964;2023-07-22T01:43:48;95793.81;;;12.92;82.04
29247;BME280;16272;48.188;9.964;2023-07-22T01:46:14;95784.78;;;12.93;81.45
29247;BME280;16272;48.188;9.964;2023-07-22T01:48:39;95785.13;;;12.82;83.03
29247;BME280;16272;48.188;9.964;2023-07-22T01:51:04;95787.13;;;12.88;83.29
29247;BME280;16272;48.188;9.964;2023-07-22T01:53:30;95780.97;;;13.20;80.27
29247;BME280;16272;48.188;9.964;2023-07-22T01:55:55;95796.47;;;13.17;79.94
29247;BME280;16272;48.188;9.964;2023-07-22T01:58:21;95786.81;;;12.99;81.08
29247;BME280;16272;48.188;9.964;2023-07-22T02:00:50;95791.13;;;13.17;79.90
29247;BME280;16272;48.188;9.964;2023-07-22T02:03:15;95783.13;;;13.09;79.86
29247;BME280;16272;48.188;9.964;2023-07-22T02:05:41;95790.13;;;13.01;79.51
29247;BME280;16272;48.188;9.964;2023-07-22T02:08:06;95782.28;;;12.92;79.76
29247;BME280;16272;48.188;9.964;2023-07-22T02:10:31;95791.81;;;12.86;80.39
29247;BME280;16272;48.188;9.964;2023-07-22T02:12:57;95792.47;;;12.80;80.33
29247;BME280;16272;48.188;9.964;2023-07-22T02:15:22;95793.66;;;12.85;80.80
29247;BME280;16272;48.188;9.964;2023-07-22T02:17:49;95791.13;;;12.84;80.04
29247;BME280;16272;48.188;9.964;2023-07-22T02:20:15;95796.81;;;12.89;79.68
29247;BME280;16272;48.188;9.964;2023-07-22T02:22:40;95797.13;;;12.86;81.16
29247;BME280;16272;48.188;9.964;2023-07-22T02:25:06;95802.47;;;12.86;81.65
29247;BME280;16272;48.188;9.964;2023-07-22T02:27:32;95801.09;;;12.74;81.10
29247;BME280;16272;48.188;9.964;2023-07-22T02:29:57;95797.94;;;12.70;82.11
29247;BME280;16272;48.188;9.964;2023-07-22T02:32:23;95790.28;;;12.67;81.44
29247;BME280;16272;48.188;9.964;2023-07-22T02:34:48;95784.09;;;12.50;82.20
29247;BME280;16272;48.188;9.964;2023-07-22T02:37:13;95791.75;;;12.45;82.01
29247;BME280;16272;48.188;9.964;2023-07-22T02:39:38;95782.56;;;12.39;82.32
29247;BME280;16272;48.188;9.964;2023-07-22T02:42:04;95784.78;;;12.68;80.41
29247;BME280;16272;48.188;9.964;2023-07-22T02:44:29;95785.09;;;12.57;80.29
29247;BME280;16272;48.188;9.964;2023-07-22T02:46:55;95788.09;;;12.71;80.92
29247;BME280;16272;48.188;9.964;2023-07-22T02:49:20;95797.13;;;12.78;79.66
29247;BME280;16272;48.188;9.964;2023-07-22T02:51:45;95786.47;;;12.78;78.88
29247;BME280;16272;48.188;9.964;2023-07-22T02:54:10;95783.47;;;12.64;78.92
29247;BME280;16272;48.188;9.964;2023-07-22T02:56:36;95788.47;;;12.76;78.12
29247;BME280;16272;48.188;9.964;2023-07-22T02:59:01;95798.13;;;12.85;77.93
29247;BME280;16272;48.188;9.964;2023-07-22T03:01:26;95807.28;;;12.66;77.43
29247;BME280;16272;48.188;9.964;2023-07-22T03:03:53;95814.66;;;12.29;78.73
29247;BME280;16272;48.188;9.964;2023-07-22T03:06:18;95809.28;;;12.13;79.19
29247;BME280;16272;48.188;9.964;2023-07-22T03:08:44;95806.53;;;12.39;78.66
29247;BME280;16272;48.188;9.964;2023-07-22T03:11:09;95810.19;;;12.30;78.94
29247;BME280;16272;48.188;9.964;2023-07-22T03:13:34;95807.41;;;11.97;82.25
29247;BME280;16272;48.188;9.964;2023-07-22T03:16:00;95805.06;;;11.94;80.93
29247;BME280;16272;48.188;9.964;2023-07-22T03:18:29;95805.59;;;11.98;80.93
29247;BME280;16272;48.188;9.964;2023-07-22T03:20:55;95801.66;;;12.18;79.96
29247;BME280;16272;48.188;9.964;2023-07-22T03:23:20;95797.63;;;12.06;78.88
29247;BME280;16272;48.188;9.964;2023-07-22T03:25:47;95807.91;;;11.92;78.84
29247;BME280;16272;48.188;9.964;2023-07-22T03:28:12;95815.78;;;11.76;80.43
29247;BME280;16272;48.188;9.964;2023-07-22T03:30:37;95812.78;;;11.79;80.36
29247;BME280;16272;48.188;9.964;2023-07-22T03:33:03;95809.84;;;11.90;81.09
29247;BME280;16272;48.188;9.964;2023-07-22T03:35:28;95803.56;;;11.91;82.33
29247;BME280;16272;48.188;9.964;2023-07-22T03:37:53;95816.25;;;11.71;83.02
29247;BME280;16272;48.188;9.964;2023-07-22T03:40:19;95810.13;;;11.79;80.94
29247;BME280;16272;48.188;9.964;2023-07-22T03:42:52;95813.47;;;11.81;79.01
29247;BME280;16272;48.188;9.964;2023-07-22T03:45:18;95821.09;;;11.76;79.19
29247;BME280;16272;48.188;9.964;2023-07-22T03:47:45;95824.28;;;11.53;80.47
29247;BME280;16272;48.188;9.964;2023-07-22T03:50:10;95817.28;;;11.52;79.84
29247;BME280;16272;48.188;9.964;2023-07-22T03:52:36;95818.53;;;11.66;79.74
29247;BME280;16272;48.188;9.964;2023-07-22T03:55:02;95813.41;;;11.73;80.00
29247;BME280;16272;48.188;9.964;2023-07-22T03:57:27;95806.38;;;11.64;80.73
29247;BME280;16272;48.188;9.964;2023-07-22T03:59:54;95810.22;;;11.61;81.40
29247;BME280;16272;48.188;9.964;2023-07-22T04:02:19;95802.56;;;11.92;79.64
29247;BME280;16272;48.188;9.964;2023-07-22T04:04:44;95810.59;;;12.01;79.07
29247;BME280;16272;48.188;9.964;2023-07-22T04:07:10;95803.41;;;11.93;79.53
29247;BME280;16272;48.188;9.964;2023-07-22T04:09:35;95797.44;;;11.99;79.79
29247;BME280;16272;48.188;9.964;2023-07-22T04:12:00;95794.72;;;12.34;78.09
29247;BME280;16272;48.188;9.964;2023-07-22T04:14:26;95805.94;;;12.03;80.25
29247;BME280;16272;48.188;9.964;2023-07-22T04:16:51;95809.59;;;12.10;79.35
29247;BME280;16272;48.188;9.964;2023-07-22T04:19:17;95804.66;;;12.15;79.45
29247;BME280;16272;48.188;9.964;2023-07-22T04:21:42;95806.97;;;12.18;80.26
29247;BME280;16272;48.188;9.964;2023-07-22T04:24:07;95804.00;;;12.21;79.89
29247;BME280;16272;48.188;9.964;2023-07-22T04:26:33;95792.41;;;12.47;78.90
29247;BME280;16272;48.188;9.964;2023-07-22T04:28:59;95807.59;;;12.63;78.69
29247;BME280;16272;48.188;9.964;2023-07-22T04:31:24;95810.91;;;12.57;78.65
29247;BME280;16272;48.188;9.964;2023-07-22T04:33:49;95811.88;;;12.47;79.51
29247;BME280;16272;48.188;9.964;2023-07-22T04:36:15;95807.09;;;12.59;79.50
29247;BME280;16272;48.188;9.964;2023-07-22T04:38:40;95806.75;;;12.62;80.16
29247;BME280;16272;48.188;9.964;2023-07-22T04:41:05;95804.09;;;12.62;80.45
29247;BME280;16272;48.188;9.964;2023-07-22T04:43:31;95811.09;;;12.63;80.16
29247;BME280;16272;48.188;9.964;2023-07-22T04:45:56;95812.25;;;12.61;79.84
29247;BME280;16272;48.188;9.964;2023-07-22T04:48:21;95815.25;;;12.49;81.10
29247;BME280;16272;48.188;9.964;2023-07-22T04:50:50;95811.41;;;12.52;81.21
29247;BME280;16272;48.188;9.964;2023-07-22T04:53:17;95819.09;;;12.72;81.21
29247;BME280;16272;48.188;9.964;2023-07-22T04:55:42;95823.13;;;12.92;79.76
29247;BME280;16272;48.188;9.964;2023-07-22T04:58:08;95823.59;;;12.63;81.56
29247;BME280;16272;48.188;9.964;2023-07-22T05:00:39;95820.72;;;12.48;82.40
29247;BME280;16272;48.188;9.964;2023-07-22T05:03:05;95823.75;;;12.69;82.61
29247;BME280;16272;48.188;9.964;2023-07-22T05:05:31;95825.78;;;12.92;81.04
29247;BME280;16272;48.188;9.964;2023-07-22T05:07:57;95817.97;;;13.07;81.19
29247;BME280;16272;48.188;9.964;2023-07-22T05:10:22;95826.78;;;13.24;80.56
29247;BME280;16272;48.188;9.964;2023-07-22T05:12:48;95825.81;;;13.41;79.94
29247;BME280;16272;48.188;9.964;2023-07-22T05:15:13;95829.78;;;13.54;78.87
29247;BME280;16272;48.188;9.964;2023-07-22T05:17:39;95823.13;;;13.58;79.36
29247;BME280;16272;48.188;9.964;2023-07-22T05:20:05;95826.91;;;13.72;79.81
29247;BME280;16272;48.188;9.964;2023-07-22T05:22:38;95836.69;;;13.96;77.98
29247;BME280;16272;48.188;9.964;2023-07-22T05:25:04;95827.28;;;14.08;78.48
29247;BME280;16272;48.188;9.964;2023-07-22T05:27:30;95829.81;;;14.02;78.26
29247;BME280;16272;48.188;9.964;2023-07-22T05:29:55;95827.28;;;14.08;78.31
29247;BME280;16272;48.188;9.964;2023-07-22T05:32:20;95827.34;;;14.40;76.41
29247;BME280;16272;48.188;9.964;2023-07-22T05:34:46;95826.75;;;14.52;76.83
29247;BME280;16272;48.188;9.964;2023-07-22T05:37:11;95826.09;;;14.50;77.36
29247;BME280;16272;48.188;9.964;2023-07-22T05:39:36;95833.19;;;14.43;76.77
29247;BME280;16272;48.188;9.964;2023-07-22T05:42:02;95840.06;;;14.69;76.96
29247;BME280;16272;48.188;9.964;2023-07-22T05:44:27;95839.00;;;14.78;76.61
29247;BME280;16272;48.188;9.964;2023-07-22T05:46:52;95840.06;;;14.69;76.50
29247;BME280;16272;48.188;9.964;2023-07-22T05:49:17;95839.19;;;15.00;76.05
29247;BME280;16272;48.188;9.964;2023-07-22T05:51:43;95836.53;;;15.00;75.79
29247;BME280;16272;48.188;9.964;2023-07-22T05:54:08;95848.78;;;15.17;75.84
29247;BME280;16272;48.188;9.964;2023-07-22T05:56:33;95846.56;;;15.21;75.58
29247;BME280;16272;48.188;9.964;2023-07-22T05:58:59;95848.34;;;15.29;75.17
29247;BME280;16272;48.188;9.964;2023-07-22T06:01:24;95845.38;;;15.61;74.78
29247;BME280;16272;48.188;9.964;2023-07-22T06:03:50;95846.41;;;15.75;74.74
29247;BME280;16272;48.188;9.964;2023-07-22T06:06:15;95847.13;;;15.92;73.47
29247;BME280;16272;48.188;9.964;2023-07-22T06:08:40;95847.63;;;15.73;75.62
29247;BME280;16272;48.188;9.964;2023-07-22T06:11:06;95848.78;;;15.93;74.79
29247;BME280;16272;48.188;9.964;2023-07-22T06:13:31;95849.44;;;15.95;75.88
29247;BME280;16272;48.188;9.964;2023-07-22T06:15:56;95860.06;;;16.04;75.91
29247;BME280;16272;48.188;9.964;2023-07-22T06:18:22;95855.06;;;16.30;76.45
29247;BME280;16272;48.188;9.964;2023-07-22T06:20:47;95848.75;;;16.23;78.01
29247;BME280;16272;48.188;9.964;2023-07-22T06:23:13;95849.97;;;16.35;75.08
29247;BME280;16272;48.188;9.964;2023-07-22T06:25:39;95846.44;;;16.50;77.45
29247;BME280;16272;48.188;9.964;2023-07-22T06:28:04;95849.97;;;16.87;75.77
29247;BME280;16272;48.188;9.964;2023-07-22T06:30:29;95856.22;;;16.72;76.05
29247;BME280;16272;48.188;9.964;2023-07-22T06:32:55;95850.66;;;17.11;73.96
29247;BME280;16272;48.188;9.964;2023-07-22T06:35:20;95860.09;;;17.06;74.58
29247;BME280;16272;48.188;9.964;2023-07-22T06:37:45;95854.53;;;17.30;73.79
29247;BME280;16272;48.188;9.964;2023-07-22T06:40:11;95853.59;;;17.37;74.73
29247;BME280;16272;48.188;9.964;2023-07-22T06:42:36;95854.59;;;17.36;74.56
29247;BME280;16272;48.188;9.964;2023-07-22T06:45:02;95861.03;;;17.63;73.50
29247;BME280;16272;48.188;9.964;2023-07-22T06:47:27;95860.78;;;17.87;74.11
29247;BME280;16272;48.188;9.964;2023-07-22T06:49:53;95860.97;;;17.57;73.26
29247;BME280;16272;48.188;9.964;2023-07-22T06:52:18;95864.13;;;17.89;71.00
29247;BME280;16272;48.188;9.964;2023-07-22T06:54:43;95861.84;;;17.86;72.39
29247;BME280;16272;48.188;9.964;2023-07-22T06:57:09;95864.25;;;18.02;74.22
29247;BME280;16272;48.188;9.964;2023-07-22T06:59:34;95866.78;;;18.10;73.44
29247;BME280;16272;48.188;9.964;2023-07-22T07:02:00;95861.94;;;18.34;70.92
29247;BME280;16272;48.188;9.964;2023-07-22T07:04:26;95864.47;;;18.42;67.26
29247;BME280;16272;48.188;9.964;2023-07-22T07:06:51;95867.75;;;18.37;70.90
29247;BME280;16272;48.188;9.964;2023-07-22T07:09:16;95869.47;;;18.52;66.18
29247;BME280;16272;48.188;9.964;2023-07-22T07:11:42;95867.44;;;18.61;66.41
29247;BME280;16272;48.188;9.964;2023-07-22T07:14:07;95862.00;;;18.47;67.22
29247;BME280;16272;48.188;9.964;2023-07-22T07:16:32;95856.13;;;18.72;65.98
29247;BME280;16272;48.188;9.964;2023-07-22T07:18:59;95857.59;;;18.81;64.64
29247;BME280;16272;48.188;9.964;2023-07-22T07:21:25;95857.56;;;18.68;67.12
29247;BME280;16272;48.188;9.964;2023-07-22T07:23:51;95859.72;;;18.44;65.19
29247;BME280;16272;48.188;9.964;2023-07-22T07:26:17;95860.06;;;18.69;63.23
29247;BME280;16272;48.188;9.964;2023-07-22T07:28:43;95864.59;;;18.69;64.62
29247;BME280;16272;48.188;9.964;2023-07-22T07:31:08;95855.28;;;18.71;64.17
29247;BME280;16272;48.188;9.964;2023-07-22T07:33:34;95864.72;;;18.89;63.97
29247;BME280;16272;48.188;9.964;2023-07-22T07:36:00;95861.66;;;19.12;60.05
29247;BME280;16272;48.188;9.964;2023-07-22T07:38:25;95856.94;;;19.34;63.16
29247;BME280;16272;48.188;9.964;2023-07-22T07:40:55;95853.97;;;19.02;58.37
29247;BME280;16272;48.188;9.964;2023-07-22T07:43:21;95851.50;;;19.14;60.04
29247;BME280;16272;48.188;9.964;2023-07-22T07:45:46;95854.03;;;19.29;58.51
29247;BME280;16272;48.188;9.964;2023-07-22T07:48:12;95852.34;;;19.35;57.80
29247;BME280;16272;48.188;9.964;2023-07-22T07:50:37;95853.22;;;19.42;57.66
29247;BME280;16272;48.188;9.964;2023-07-22T07:53:02;95858.19;;;19.72;56.89
29247;BME280;16272;48.188;9.964;2023-07-22T07:55:28;95854.03;;;19.62;60.43
29247;BME280;16272;48.188;9.964;2023-07-22T07:57:53;95852.41;;;19.88;58.98
29247;BME280;16272;48.188;9.964;2023-07-22T08:00:18;95852.81;;;19.85;57.52
29247;BME280;16272;48.188;9.964;2023-07-22T08:02:45;95844.06;;;20.16;57.86
29247;BME280;16272;48.188;9.964;2023-07-22T08:05:11;95847.84;;;20.09;58.37
29247;BME280;16272;48.188;9.964;2023-07-22T08:07:37;95851.53;;;20.14;56.26
29247;BME280;16272;48.188;9.964;2023-07-22T08:10:03;95853.03;;;20.10;56.90
29247;BME280;16272;48.188;9.964;2023-07-22T08:12:30;95851.38;;;20.02;56.64
29247;BME280;16272;48.188;9.964;2023-07-22T08:14:55;95843.72;;;19.79;53.33
29247;BME280;16272;48.188;9.964;2023-07-22T08:17:21;95848.00;;;20.20;53.66
29247;BME280;16272;48.188;9.964;2023-07-22T08:19:46;95839.53;;;20.17;50.86
29247;BME280;16272;48.188;9.964;2023-07-22T08:22:12;95853.03;;;20.10;56.02
29247;BME280;16272;48.188;9.964;2023-07-22T08:24:37;95851.59;;;19.94;53.91
29247;BME280;16272;48.188;9.964;2023-07-22T08:27:02;95847.81;;;20.22;51.11
29247;BME280;16272;48.188;9.964;2023-07-22T08:29:28;95843.75;;;20.58;48.65
29247;BME280;16272;48.188;9.964;2023-07-22T08:31:53;95836.53;;;20.97;46.42
29247;BME280;16272;48.188;9.964;2023-07-22T08:34:19;95840.47;;;21.01;55.41
29247;BME280;16272;48.188;9.964;2023-07-22T08:36:44;95836.88;;;20.62;50.30
29247;BME280;16272;48.188;9.964;2023-07-22T08:39:09;95836.69;;;21.09;46.72
29247;BME280;16272;48.188;9.964;2023-07-22T08:41:36;95833.84;;;21.61;49.72
29247;BME280;16272;48.188;9.964;2023-07-22T08:44:01;95831.56;;;21.58;45.59
29247;BME280;16272;48.188;9.964;2023-07-22T08:46:29;95833.28;;;21.77;49.79
29247;BME280;16272;48.188;9.964;2023-07-22T08:48:59;95833.06;;;22.04;45.73
29247;BME280;16272;48.188;9.964;2023-07-22T08:51:26;95834.63;;;21.93;49.85
29247;BME280;16272;48.188;9.964;2023-07-22T08:53:55;95838.59;;;21.91;48.71
29247;BME280;16272;48.188;9.964;2023-07-22T08:56:25;95836.41;;;22.80;47.84
29247;BME280;16272;48.188;9.964;2023-07-22T08:58:52;95836.53;;;23.04;46.76
29247;BME280;16272;48.188;9.964;2023-07-22T09:01:18;95836.94;;;22.70;43.96
29247;BME280;16272;48.188;9.964;2023-07-22T09:03:43;95836.03;;;22.76;43.47
29247;BME280;16272;48.188;9.964;2023-07-22T09:06:09;95833.56;;;22.75;45.94
29247;BME280;16272;48.188;9.964;2023-07-22T09:08:35;95840.16;;;21.55;47.95
29247;BME280;16272;48.188;9.964;2023-07-22T09:11:01;95840.19;;;22.42;45.72
29247;BME280;16272;48.188;9.964;2023-07-22T09:13:26;95831.00;;;22.80;46.31
29247;BME280;16272;48.188;9.964;2023-07-22T09:15:53;95832.66;;;22.63;48.30
29247;BME280;16272;48.188;9.964;2023-07-22T09:18:18;95829.31;;;22.79;41.41
29247;BME280;16272;48.188;9.964;2023-07-22T09:20:44;95830.53;;;22.83;42.58
29247;BME280;16272;48.188;9.964;2023-07-22T09:23:09;95831.06;;;21.74;47.28
29247;BME280;16272;48.188;9.964;2023-07-22T09:25:34;95832.94;;;22.91;46.79
29247;BME280;16272;48.188;9.964;2023-07-22T09:28:00;95828.13;;;23.78;44.43
29247;BME280;16272;48.188;9.964;2023-07-22T09:30:29;95822.59;;;24.20;43.83
29247;BME280;16272;48.188;9.964;2023-07-22T09:32:57;95823.75;;;23.53;41.21
29247;BME280;16272;48.188;9.964;2023-07-22T09:35:26;95828.13;;;22.75;39.51
29247;BME280;16272;48.188;9.964;2023-07-22T09:37:53;95825.53;;;22.50;41.43
29247;BME280;16272;48.188;9.964;2023-07-22T09:42:52;95825.66;;;23.76;41.20
29247;BME280;16272;48.188;9.964;2023-07-22T09:45:20;95820.03;;;24.01;40.02
29247;BME280;16272;48.188;9.964;2023-07-22T09:47:47;95817.22;;;23.96;38.27
29247;BME280;16272;48.188;9.964;2023-07-22T09:50:14;95820.88;;;24.14;38.96
29247;BME280;16272;48.188;9.964;2023-07-22T09:52:44;95819.41;;;24.47;37.02
29247;BME280;16272;48.188;9.964;2023-07-22T09:55:09;95813.00;;;24.76;37.20
29247;BME280;16272;48.188;9.964;2023-07-22T09:57:35;95804.03;;;24.52;37.16
29247;BME280;16272;48.188;9.964;2023-07-22T10:00:01;95811.63;;;25.20;38.06
29247;BME280;16272;48.188;9.964;2023-07-22T10:02:27;95803.38;;;24.86;39.03
29247;BME280;16272;48.188;9.964;2023-07-22T10:04:54;95808.19;;;24.95;40.43
29247;BME280;16272;48.188;9.964;2023-07-22T10:07:23;95807.94;;;24.68;37.46
29247;BME280;16272;48.188;9.964;2023-07-22T10:09:49;95807.66;;;25.10;38.38
29247;BME280;16272;48.188;9.964;2023-07-22T10:12:16;95801.91;;;25.53;39.65
29247;BME280;16272;48.188;9.964;2023-07-22T10:14:41;95794.41;;;24.85;33.80
29247;BME280;16272;48.188;9.964;2023-07-22T10:17:07;95796.28;;;25.59;38.12
29247;BME280;16272;48.188;9.964;2023-07-22T10:19:34;95794.47;;;25.31;41.41
29247;BME280;16272;48.188;9.964;2023-07-22T10:21:59;95798.44;;;26.08;40.16
29247;BME280;16272;48.188;9.964;2023-07-22T10:24:25;95789.69;;;25.89;37.25
29247;BME280;16272;48.188;9.964;2023-07-22T10:26:51;95790.47;;;26.01;37.23
29247;BME280;16272;48.188;9.964;2023-07-22T10:29:18;95786.72;;;25.91;36.91
29247;BME280;16272;48.188;9.964;2023-07-22T10:31:45;95778.81;;;25.38;37.80
29247;BME280;16272;48.188;9.964;2023-07-22T10:34:10;95779.31;;;26.03;38.81
29247;BME280;16272;48.188;9.964;2023-07-22T10:36:35;95783.72;;;25.24;37.54
29247;BME280;16272;48.188;9.964;2023-07-22T10:39:01;95790.59;;;24.98;38.42
29247;BME280;16272;48.188;9.964;2023-07-22T10:41:26;95783.53;;;25.77;37.73
29247;BME280;16272;48.188;9.964;2023-07-22T10:43:56;95797.34;;;23.60;41.48
29247;BME280;16272;48.188;9.964;2023-07-22T10:46:57;95786.09;;;24.92;38.33
29247;BME280;16272;48.188;9.964;2023-07-22T10:49:22;95788.16;;;24.09;37.95
29247;BME280;16272;48.188;9.964;2023-07-22T10:51:49;95782.88;;;23.90;38.97
29247;BME280;16272;48.188;9.964;2023-07-22T10:54:41;95782.75;;;23.85;40.37
29247;BME280;16272;48.188;9.964;2023-07-22T10:59:49;95766.75;;;24.59;38.20
29247;BME280;16272;48.188;9.964;2023-07-22T11:02:28;95768.38;;;25.01;41.42
29247;BME280;16272;48.188;9.964;2023-07-22T11:04:56;95776.03;;;23.99;39.61
29247;BME280;16272;48.188;9.964;2023-07-22T11:07:32;95758.88;;;24.58;35.53
29247;BME280;16272;48.188;9.964;2023-07-22T11:10:12;95763.28;;;25.22;36.89
29247;BME280;16272;48.188;9.964;2023-07-22T11:12:38;95751.63;;;25.72;37.49
29247;BME280;16272;48.188;9.964;2023-07-22T11:15:04;95755.25;;;25.61;37.68
29247;BME280;16272;48.188;9.964;2023-07-22T11:17:32;95751.47;;;25.28;36.49
29247;BME280;16272;48.188;9.964;2023-07-22T11:19:58;95748.59;;;26.25;39.23
29247;BME280;16272;48.188;9.964;2023-07-22T11:22:24;95734.06;;;25.80;37.95
29247;BME280;16272;48.188;9.964;2023-07-22T11:24:49;95738.88;;;26.73;38.84
29247;BME280;16272;48.188;9.964;2023-07-22T11:27:15;95731.28;;;25.75;37.28
29247;BME280;16272;48.188;9.964;2023-07-22T11:29:40;95738.84;;;26.29;37.29
29247;BME280;16272;48.188;9.964;2023-07-22T11:32:06;95726.59;;;25.70;36.76
29247;BME280;16272;48.188;9.964;2023-07-22T11:34:40;95733.41;;;26.29;37.26
29247;BME280;16272;48.188;9.964;2023-07-22T11:37:05;95724.84;;;26.42;35.08
29247;BME280;16272;48.188;9.964;2023-07-22T11:39:30;95717.75;;;26.41;38.26
29247;BME280;16272;48.188;9.964;2023-07-22T11:41:59;95723.25;;;26.02;39.30
29247;BME280;16272;48.188;9.964;2023-07-22T11:44:27;95727.88;;;25.17;37.61
29247;BME280;16272;48.188;9.964;2023-07-22T11:46:59;95725.91;;;25.63;39.61
29247;BME280;16272;48.188;9.964;2023-07-22T11:51:51;95719.59;;;25.40;40.65
29247;BME280;16272;48.188;9.964;2023-07-22T11:54:16;95717.84;;;25.51;38.51
29247;BME280;16272;48.188;9.964;2023-07-22T11:56:42;95712.06;;;26.20;40.56
29247;BME280;16272;48.188;9.964;2023-07-22T11:59:07;95704.41;;;26.17;38.80
29247;BME280;16272;48.188;9.964;2023-07-22T12:01:33;95711.03;;;26.27;39.88
29247;BME280;16272;48.188;9.964;2023-07-22T12:03:59;95697.66;;;26.69;37.88
29247;BME280;16272;48.188;9.964;2023-07-22T12:06:27;95701.22;;;26.97;35.98
29247;BME280;16272;48.188;9.964;2023-07-22T12:08:53;95711.94;;;26.32;37.92
29247;BME280;16272;48.188;9.964;2023-07-22T12:11:22;95709.00;;;24.93;38.52
29247;BME280;16272;48.188;9.964;2023-07-22T12:14:14;95697.34;;;25.60;35.67
29247;BME280;16272;48.188;9.964;2023-07-22T12:16:41;95699.41;;;26.53;41.58
29247;BME280;16272;48.188;9.964;2023-07-22T12:19:08;95701.66;;;24.93;38.08
29247;BME280;16272;48.188;9.964;2023-07-22T12:21:34;95696.75;;;24.21;40.19
29247;BME280;16272;48.188;9.964;2023-07-22T12:24:00;95687.03;;;25.11;37.47
29247;BME280;16272;48.188;9.964;2023-07-22T12:26:25;95690.56;;;25.12;39.94
29247;BME280;16272;48.188;9.964;2023-07-22T12:28:51;95687.06;;;26.01;37.04
29247;BME280;16272;48.188;9.964;2023-07-22T12:31:16;95681.97;;;25.32;39.78
29247;BME280;16272;48.188;9.964;2023-07-22T12:33:42;95690.47;;;25.58;38.77
29247;BME280;16272;48.188;9.964;2023-07-22T12:36:07;95674.19;;;25.97;35.26
29247;BME280;16272;48.188;9.964;2023-07-22T12:38:33;95677.56;;;25.65;35.72
29247;BME280;16272;48.188;9.964;2023-07-22T12:40:58;95683.50;;;25.84;35.13
29247;BME280;16272;48.188;9.964;2023-07-22T12:43:23;95674.47;;;25.78;37.95
29247;BME280;16272;48.188;9.964;2023-07-22T12:45:49;95673.72;;;26.49;35.82
29247;BME280;16272;48.188;9.964;2023-07-22T12:48:16;95671.13;;;26.59;37.08
29247;BME280;16272;48.188;9.964;2023-07-22T12:50:42;95671.56;;;26.51;36.74
29247;BME280;16272;48.188;9.964;2023-07-22T12:53:08;95669.44;;;26.53;35.61
29247;BME280;16272;48.188;9.964;2023-07-22T12:55:33;95667.25;;;26.06;34.94
29247;BME280;16272;48.188;9.964;2023-07-22T12:57:58;95659.69;;;26.85;36.16
29247;BME280;16272;48.188;9.964;2023-07-22T13:00:24;95665.94;;;25.53;37.72
29247;BME280;16272;48.188;9.964;2023-07-22T13:02:49;95646.59;;;25.88;35.53